createdAt,value
2024-03-05T00:03:58.711Z,98594.28
2024-03-05T00:09:01.659Z,98651.28
2024-03-05T00:14:05.346Z,98625.00
2024-03-05T00:19:09.679Z,98647.88
2024-03-05T00:24:12.508Z,98621.97
2024-03-05T00:29:17.126Z,98666.41
2024-03-05T00:34:19.976Z,98643.44
2024-03-05T00:39:22.876Z,98650.13
2024-03-05T00:44:25.843Z,98609.50
2024-03-05T00:49:30.423Z,98623.88
2024-03-05T00:54:33.474Z,98641.22
2024-03-05T00:59:36.662Z,98688.19
2024-03-05T01:04:39.868Z,98640.38
2024-03-05T01:09:42.802Z,98603.41
2024-03-05T01:14:46.101Z,98606.91
2024-03-05T01:19:49.323Z,98627.84
2024-03-05T01:24:52.393Z,98521.56
2024-03-05T01:29:55.425Z,98605.66
2024-03-05T01:34:58.319Z,98679.66
2024-03-05T01:40:01.361Z,98585.09
2024-03-05T01:45:05.069Z,98620.56
2024-03-05T01:50:10.631Z,98589.66
2024-03-05T01:55:16.407Z,98592.78
2024-03-05T02:00:21.973Z,98588.81
2024-03-05T02:05:25.482Z,98643.06
2024-03-05T02:10:28.714Z,98618.53
2024-03-05T02:15:31.710Z,98629.66
2024-03-05T02:20:35.124Z,98661.06
2024-03-05T02:25:38.064Z,98639.00
2024-03-05T02:30:41.510Z,98630.66
2024-03-05T02:35:47.566Z,98642.94
2024-03-05T02:40:50.383Z,98594.03
2024-03-05T02:45:53.240Z,98687.66
2024-03-05T02:50:56.441Z,98651.59
2024-03-05T02:55:59.279Z,98621.97
2024-03-05T03:01:03.314Z,98613.75
2024-03-05T03:06:06.407Z,98582.22
2024-03-05T03:11:09.910Z,98632.41
2024-03-05T03:16:13.755Z,98593.41
2024-03-05T03:21:17.155Z,98599.34
2024-03-05T03:26:19.947Z,98630.72
2024-03-05T03:31:26.910Z,98569.34
2024-03-05T03:36:29.803Z,98625.13
2024-03-05T03:41:32.688Z,98641.44
2024-03-05T03:46:36.183Z,98616.16
2024-03-05T03:51:39.831Z,98675.94
2024-03-05T03:56:42.640Z,98663.28
2024-03-05T04:01:50.956Z,98698.69
2024-03-05T04:06:53.983Z,98635.88
2024-03-05T04:11:56.992Z,98682.25
2024-03-05T04:16:59.872Z,98678.91
2024-03-05T04:22:03.485Z,98735.97
2024-03-05T04:27:08.650Z,98771.66
2024-03-05T04:32:11.646Z,98701.75
2024-03-05T04:37:15.093Z,98799.72
2024-03-05T04:42:18.039Z,98651.56
2024-03-05T04:47:21.794Z,98740.09
2024-03-05T04:52:24.743Z,98636.09
2024-03-05T04:57:27.612Z,98772.28
2024-03-05T05:02:30.436Z,98750.22
2024-03-05T05:07:34.770Z,98761.31
2024-03-05T05:12:40.660Z,98716.34
2024-03-05T05:17:45.957Z,98737.97
2024-03-05T05:22:49.126Z,98766.53
2024-03-05T05:27:52.827Z,98757.44
2024-03-05T05:32:56.248Z,98784.56
2024-03-05T05:38:00.110Z,98802.59
2024-03-05T05:43:03.027Z,98742.75
2024-03-05T05:48:06.581Z,98745.81
2024-03-05T05:53:10.015Z,98765.41
2024-03-05T05:58:14.489Z,98730.75
2024-03-05T06:03:18.177Z,98762.75
2024-03-05T06:08:21.907Z,98809.84
2024-03-05T06:13:25.683Z,98776.28
2024-03-05T06:18:30.459Z,98793.06
2024-03-05T06:23:33.443Z,98765.25
2024-03-05T06:28:39.094Z,98774.59
2024-03-05T06:33:42.170Z,98762.63
2024-03-05T06:38:45.242Z,98811.97
2024-03-05T06:43:49.092Z,98813.91
2024-03-05T06:48:53.607Z,98815.34
2024-03-05T06:54:15.027Z,98782.00
2024-03-05T06:59:19.581Z,98835.94
2024-03-05T07:04:22.528Z,98775.41
2024-03-05T07:09:31.958Z,98814.50
2024-03-05T07:14:34.979Z,98878.47
2024-03-05T07:19:38.659Z,98840.06
2024-03-05T07:24:42.069Z,98900.78
2024-03-05T07:29:44.896Z,98835.81
2024-03-05T07:34:47.840Z,98970.97
2024-03-05T07:39:50.693Z,98912.84
2024-03-05T07:44:53.513Z,98893.25
2024-03-05T07:49:56.793Z,98905.59
2024-03-05T07:54:59.980Z,98859.94
2024-03-05T08:00:09.847Z,98897.75
2024-03-05T08:05:22.918Z,98931.75
2024-03-05T08:10:26.623Z,98964.88
2024-03-05T08:15:29.913Z,98894.44
2024-03-05T08:20:32.838Z,98861.09
2024-03-05T08:25:36.137Z,98957.25
2024-03-05T08:30:38.989Z,98958.28
2024-03-05T08:35:41.872Z,99002.16
2024-03-05T08:40:44.807Z,98903.97
2024-03-05T08:45:47.944Z,98947.09
2024-03-05T08:50:51.338Z,98926.63
2024-03-05T08:55:54.121Z,98942.91
2024-03-05T09:00:57.148Z,98961.91
2024-03-05T09:05:59.974Z,98988.97
2024-03-05T09:11:06.713Z,98992.94
2024-03-05T09:16:10.839Z,99055.94
2024-03-05T09:21:14.293Z,99010.03
2024-03-05T09:26:17.470Z,99005.13
2024-03-05T09:31:20.559Z,99030.38
2024-03-05T09:36:24.629Z,99019.41
2024-03-05T09:41:29.120Z,98990.66
2024-03-05T09:46:33.047Z,99084.50
2024-03-05T09:51:37.777Z,99113.34
2024-03-05T09:56:46.835Z,99025.31
2024-03-05T10:01:51.225Z,99011.38
2024-03-05T10:06:54.681Z,98986.16
2024-03-05T10:11:58.144Z,99052.69
2024-03-05T10:17:02.484Z,99060.63
2024-03-05T10:22:12.088Z,99095.66
2024-03-05T10:27:28.907Z,99110.28
2024-03-05T10:32:31.847Z,99126.59
2024-03-05T10:37:34.845Z,99102.16
2024-03-05T10:42:39.711Z,99194.97
2024-03-05T10:47:44.170Z,99083.31
2024-03-05T10:52:55.547Z,99121.25
2024-03-05T10:58:15.200Z,99275.13
2024-03-05T11:03:41.001Z,99144.81
2024-03-05T11:08:46.234Z,99202.41
2024-03-05T11:13:51.508Z,99035.97
2024-03-05T11:18:54.645Z,99128.94
2024-03-05T11:23:59.352Z,99185.00
2024-03-05T11:29:31.619Z,99144.25
2024-03-05T11:34:36.760Z,99095.22
2024-03-05T11:39:47.660Z,99065.41
2024-03-05T11:44:51.386Z,99162.06
2024-03-05T11:49:54.621Z,99047.56
2024-03-05T11:55:07.286Z,99127.03
2024-03-05T12:00:23.280Z,99018.00
2024-03-05T12:05:31.089Z,99063.47
2024-03-05T12:10:40.365Z,99075.41
2024-03-05T12:15:43.324Z,99025.63
2024-03-05T12:20:47.484Z,99035.63
2024-03-05T12:25:50.486Z,99026.50
2024-03-05T12:30:54.853Z,99120.25
2024-03-05T12:35:59.761Z,99061.56
2024-03-05T12:41:02.903Z,99070.94
2024-03-05T12:46:05.844Z,99009.34
2024-03-05T12:51:10.630Z,99079.72
2024-03-05T12:56:17.095Z,99059.25
2024-03-05T13:01:20.609Z,99071.75
2024-03-05T13:06:23.590Z,99007.69
2024-03-05T13:11:26.986Z,99077.28
2024-03-05T13:16:30.735Z,99003.50
2024-03-05T13:21:35.151Z,98956.56
2024-03-05T13:26:49.078Z,98998.41
2024-03-05T13:31:52.238Z,98993.31
2024-03-05T13:36:55.339Z,99008.13
2024-03-05T13:41:58.403Z,99038.19
2024-03-05T13:47:01.620Z,99112.06
2024-03-05T13:52:04.841Z,99012.16
2024-03-05T13:57:08.870Z,99016.50
2024-03-05T14:02:12.018Z,99048.06
2024-03-05T14:07:16.580Z,99064.38
2024-03-05T14:12:19.504Z,99005.06
2024-03-05T14:17:22.938Z,98990.00
2024-03-05T14:22:25.760Z,99003.53
2024-03-05T14:27:28.730Z,99082.59
2024-03-05T14:32:32.020Z,99019.44
2024-03-05T14:37:35.007Z,99014.66
2024-03-05T14:42:40.631Z,98978.28
2024-03-05T14:47:45.277Z,99012.28
2024-03-05T14:52:48.241Z,98943.91
2024-03-05T14:57:51.544Z,99047.03
2024-03-05T15:02:55.233Z,98995.28
2024-03-05T15:07:58.645Z,99033.53
2024-03-05T15:13:01.817Z,99068.41
2024-03-05T15:18:06.634Z,98974.66
2024-03-05T15:23:11.480Z,98941.88
2024-03-05T15:28:14.545Z,98952.13
2024-03-05T15:33:17.953Z,98955.28
2024-03-05T15:38:21.862Z,98983.66
2024-03-05T15:43:25.016Z,98899.97
2024-03-05T15:48:28.003Z,98917.34
2024-03-05T15:53:31.320Z,98914.13
2024-03-05T15:58:43.653Z,98908.63
2024-03-05T16:08:54.442Z,98844.69
2024-03-05T16:13:57.349Z,98897.50
2024-03-05T16:19:00.229Z,98824.16
2024-03-05T16:24:03.722Z,98940.91
2024-03-05T16:29:07.922Z,98843.78
2024-03-05T16:34:13.401Z,98863.06
2024-03-05T16:39:19.826Z,98811.69
2024-03-05T16:44:23.800Z,98817.47
2024-03-05T16:49:27.295Z,98788.63
2024-03-05T16:54:30.128Z,98807.88
2024-03-05T16:59:33.196Z,98873.19
2024-03-05T17:04:36.226Z,98801.78
2024-03-05T17:09:39.057Z,98869.97
2024-03-05T17:14:44.166Z,98853.19
2024-03-05T17:19:47.959Z,98825.28
2024-03-05T17:24:52.073Z,98915.53
2024-03-05T17:29:54.945Z,98903.56
2024-03-05T17:35:00.848Z,98820.78
2024-03-05T17:40:10.137Z,98868.06
2024-03-05T17:45:15.401Z,98926.41
2024-03-05T17:50:18.359Z,98880.78
2024-03-05T17:55:22.057Z,98800.09
2024-03-05T18:00:28.300Z,98929.03
2024-03-05T18:05:31.801Z,98988.94
2024-03-05T18:10:37.127Z,99048.13
2024-03-05T18:15:40.377Z,98958.50
2024-03-05T18:20:45.018Z,98935.66
2024-03-05T18:25:49.426Z,98971.88
2024-03-05T18:30:52.694Z,98952.94
2024-03-05T18:35:57.602Z,98929.97
2024-03-05T18:41:02.212Z,98967.13
2024-03-05T18:46:07.080Z,98952.22
2024-03-05T18:51:10.946Z,98918.78
2024-03-05T18:56:14.384Z,98960.63
2024-03-05T19:01:17.664Z,98940.38
2024-03-05T19:06:24.123Z,98893.31
2024-03-05T19:11:28.166Z,98865.66
2024-03-05T19:16:31.486Z,98882.09
2024-03-05T19:21:34.386Z,98877.16
2024-03-05T19:26:37.185Z,98881.84
2024-03-05T19:31:45.954Z,98828.91
2024-03-05T19:36:48.817Z,98884.19
2024-03-05T19:41:52.327Z,98892.84
2024-03-05T19:46:55.225Z,98843.13
2024-03-05T19:51:59.624Z,98881.53
2024-03-05T19:57:04.356Z,98871.13
2024-03-05T20:02:07.661Z,98827.81
2024-03-05T20:07:13.349Z,98907.78
2024-03-05T20:12:16.485Z,98848.22
2024-03-05T20:17:23.220Z,98920.78
2024-03-05T20:22:29.299Z,98881.78
2024-03-05T20:27:32.481Z,98843.75
2024-03-05T20:32:35.300Z,98836.69
2024-03-05T20:37:38.108Z,98823.38
2024-03-05T20:42:45.000Z,98876.28
2024-03-05T20:47:49.346Z,98896.72
2024-03-05T20:52:52.367Z,98845.97
2024-03-05T20:57:55.421Z,98853.38
2024-03-05T21:02:58.666Z,98822.84
2024-03-05T21:08:01.558Z,98884.94
2024-03-05T21:13:05.015Z,98856.63
2024-03-05T21:18:10.940Z,98838.16
2024-03-05T21:23:16.741Z,98882.56
2024-03-05T21:28:21.079Z,98887.22
2024-03-05T21:33:25.330Z,98852.47
2024-03-05T21:38:28.900Z,98855.66
2024-03-05T21:43:31.703Z,98852.66
2024-03-05T21:48:35.060Z,98825.00
2024-03-05T21:53:37.927Z,98839.78
2024-03-05T21:58:43.388Z,98859.38
2024-03-05T22:03:46.386Z,98924.69
2024-03-05T22:08:50.056Z,98841.09
2024-03-05T22:13:52.986Z,98859.34
2024-03-05T22:18:55.946Z,98890.44
2024-03-05T22:23:59.914Z,98938.50
2024-03-05T22:29:04.155Z,98956.47
2024-03-05T22:34:06.976Z,98926.34
2024-03-05T22:39:09.869Z,98866.91
2024-03-05T22:44:12.843Z,98878.16
2024-03-05T22:49:15.881Z,98894.31
2024-03-05T22:54:18.752Z,98900.16
2024-03-05T22:59:21.641Z,98916.09
2024-03-05T23:04:24.476Z,98963.13
2024-03-05T23:09:27.385Z,98954.63
2024-03-05T23:14:31.908Z,98927.84
2024-03-05T23:19:34.743Z,98788.28
2024-03-05T23:24:37.629Z,98821.53
2024-03-05T23:29:41.511Z,98969.47
2024-03-05T23:34:44.417Z,98954.03
2024-03-05T23:39:47.209Z,98887.59
2024-03-05T23:44:50.132Z,98946.50
2024-03-05T23:49:53.924Z,98929.03
2024-03-05T23:55:00.206Z,98978.69
